Latest Weather Observations for Maria Island

IDT60901

Issued at 3:31 pm EST Tuesday 29 September 2020 (issued every 10 minutes, with the page automatically refreshed every 10 minutes)

About weather observations | Map of Hobart area stations | Latest observations for Hobart area | Other Formats
Station Details ID: 092124 Name: MARIA ISLAND (POINT LESUEUR) Lat: -42.66 Lon: 148.02 Height: 28.0 m
Data from the previous 72 hours. | See also: Recent months at Maria Island
Date/Time
EST
Temp
°C
App
Temp
°C
Dew
Point
°C
Rel
Hum
%
Delta-T
°C
Wind Press
QNH
hPa
Press
MSL
hPa
Rain since
9am
mm
Dir  Spd
km/h
Gust
km/h
Spd
kts
Gust
kts
29/03:30pm 14.2 9.3 8.4 68 2.9 NNE 24 30 13 16 1018.9 1018.9 0.0
29/03:00pm 14.3 9.0 8.5 68 2.9 NNE 26 32 14 17 1019.2 1019.2 0.0
29/02:30pm 14.4 9.1 8.6 68 2.9 NNE 26 32 14 17 1019.5 1019.5 0.0
29/02:00pm 14.6 9.3 8.5 67 3.1 NNE 26 32 14 17 1020.0 1020.0 0.0
29/01:30pm 14.6 10.7 8.5 67 3.1 NNE 19 24 10 13 1020.8 1020.8 0.0
29/01:00pm 14.7 10.6 8.6 67 3.1 N 20 22 11 12 1021.5 1021.5 0.0
29/12:30pm 14.3 10.7 8.5 68 2.9 NNE 17 20 9 11 1022.0 1022.0 0.0
29/12:00pm 14.1 9.6 8.7 70 2.7 N 22 30 12 16 1022.5 1022.5 0.0
29/11:30am 13.5 9.3 8.1 70 2.7 N 20 26 11 14 1022.9 1022.9 0.0
29/11:00am 13.2 9.1 7.9 70 2.6 N 19 24 10 13 1023.2 1023.2 0.0
29/10:30am 12.6 8.3 7.9 73 2.3 N 20 26 11 14 1023.5 1023.5 0.0
29/10:00am 12.2 7.5 7.7 74 2.2 NNE 22 28 12 15 1024.2 1024.2 0.0
29/09:30am 11.6 6.2 8.1 79 1.7 N 26 30 14 16 1024.6 1024.6 0.0
29/09:00am 11.5 7.4 7.8 78 1.8 N 19 20 10 11 1025.0 1025.0 0.0
29/08:30am 10.7 9.1 7.9 83 1.4 N 6 7 3 4 1025.1 1025.1 0.0
29/08:00am 9.8 8.4 7.4 85 1.1 NNE 4 6 2 3 1025.3 1025.3 0.0
29/07:30am 9.4 8.8 7.5 88 0.9 CALM 0 0 0 0 1025.2 1025.2 0.0
29/07:00am 8.9 7.8 7.0 88 0.9 NW 2 2 1 1 1025.3 1025.3 0.0
29/06:30am 8.3 6.7 6.4 88 0.9 NW 4 11 2 6 1025.2 1025.2 0.0
29/06:00am 8.0 6.0 6.1 88 0.9 NNW 6 6 3 3 1025.1 1025.1 0.0
29/05:30am 7.3 4.8 5.0 85 1.0 NE 7 7 4 4 1024.9 1024.9 0.0
29/05:00am 8.7 7.7 5.6 81 1.4 CALM 0 0 0 0 1024.9 1024.9 0.0
29/04:30am 8.8 7.8 5.7 81 1.4 CALM 0 2 0 1 1024.9 1024.9 0.0
29/04:00am 8.9 6.7 6.2 83 1.2 W 7 7 4 4 1025.2 1025.2 0.0
29/03:30am 9.0 6.7 5.9 81 1.4 WNW 7 9 4 5 1025.1 1025.1 0.0
29/03:00am 8.9 7.1 5.6 80 1.5 NNW 4 4 2 2 1025.1 1025.1 0.0
29/02:30am 9.3 7.5 5.3 76 1.8 S 4 6 2 3 1025.4 1025.4 0.0
29/02:00am 9.4 7.2 5.4 76 1.8 SW 6 7 3 4 1025.8 1025.8 0.0
29/01:30am 9.3 7.0 5.7 78 1.6 WSW 7 11 4 6 1026.1 1026.1 0.0
29/01:00am 9.2 6.5 5.6 78 1.6 WSW 9 13 5 7 1026.2 1026.2 0.0
29/12:30am 9.0 6.3 5.4 78 1.6 W 9 11 5 6 1026.3 1026.3 0.0
29/12:00am 9.3 7.1 5.3 76 1.8 WSW 6 11 3 6 1026.3 1026.3 0.0
 
Date/Time
EST
Temp
°C
App
Temp
°C
Dew
Point
°C
Rel
Hum
%
Delta-T
°C
Wind Press
QNH
hPa
Press
MSL
hPa
Rain since
9am
mm
Dir  Spd
km/h
Gust
km/h
Spd
kts
Gust
kts
28/11:30pm 9.4 6.3 5.4 76 1.8 WSW 11 13 6 7 1026.4 1026.4 0.0
28/11:00pm 9.4 5.9 5.4 76 1.8 SSW 13 15 7 8 1026.5 1026.5 0.0
28/10:30pm 9.6 5.3 5.2 74 2.0 S 17 20 9 11 1026.5 1026.5 0.0
28/10:00pm 9.6 4.8 5.4 75 1.9 S 20 26 11 14 1026.6 1026.6 0.0
28/09:30pm 9.5 4.3 5.5 76 1.8 SSW 22 28 12 15 1026.8 1026.9 0.0
28/09:00pm 9.7 4.2 5.7 76 1.8 SSW 24 32 13 17 1026.9 1027.0 0.0
28/08:30pm 9.9 3.5 5.3 73 2.1 SSW 28 33 15 18 1026.7 1026.7 0.0
28/08:00pm 10.0 4.4 5.4 73 2.1 SSW 24 30 13 16 1026.7 1026.7 0.0
28/07:30pm 10.1 3.4 5.7 74 2.0 SSW 30 33 16 18 1026.4 1026.4 0.0
28/07:00pm 10.2 3.6 6.0 75 1.9 SW 30 35 16 19 1025.8 1025.8 0.0
28/06:30pm 10.4 4.6 6.2 75 2.0 SW 26 30 14 16 1025.8 1025.8 0.0
28/06:00pm 10.5 3.6 6.5 76 1.9 SSW 32 37 17 20 1025.3 1025.3 0.0
28/05:30pm 10.9 3.5 6.6 75 2.0 SSW 35 39 19 21 1024.9 1024.9 0.0
28/05:00pm 11.2 3.8 6.7 74 2.1 SSW 35 43 19 23 1024.4 1024.4 0.0
28/04:30pm 11.5 3.8 7.2 75 2.1 SSW 37 43 20 23 1024.0 1024.0 0.0
28/04:00pm 11.7 3.6 7.0 73 2.2 SSW 39 44 21 24 1023.8 1023.8 0.0
28/03:30pm 12.1 4.1 7.6 74 2.2 SSW 39 43 21 23 1023.6 1023.6 0.0
28/03:00pm 12.2 3.8 7.5 73 2.3 SSW 41 44 22 24 1023.6 1023.6 0.0
28/02:30pm 12.6 5.8 7.9 73 2.3 SSW 33 37 18 20 1023.7 1023.7 0.0
28/02:00pm 12.2 6.4 7.9 75 2.1 S 28 32 15 17 1023.8 1023.8 0.0
28/01:30pm 12.5 6.7 8.0 74 2.2 S 28 33 15 18 1023.8 1023.8 0.0
28/01:00pm 12.7 6.1 7.8 72 2.4 SSW 32 37 17 20 1023.8 1023.8 0.0
28/12:30pm 12.3 7.1 7.4 72 2.4 S 24 30 13 16 1023.9 1023.9 0.0
28/12:00pm 12.8 5.8 7.0 68 2.8 SSW 33 39 18 21 1023.7 1023.7 0.0
28/11:30am 12.9 4.8 5.3 60 3.5 SW 37 46 20 25 1023.6 1023.6 0.0
28/11:00am 12.7 4.8 6.1 64 3.1 SSW 37 46 20 25 1023.6 1023.6 0.0
28/10:30am 11.9 4.2 5.5 65 3.0 SSW 35 43 19 23 1023.8 1023.8 0.0
28/10:00am 12.2 2.9 5.1 62 3.3 SW 43 54 23 29 1023.7 1023.7 0.0
28/09:30am 11.6 4.2 5.0 64 3.0 SW 33 56 18 30 1024.0 1024.0 0.0
28/09:04am 11.2 4.3 4.7 64 2.9 SW 30 48 16 26 1023.9 1023.9 0.0
28/09:00am 11.1 3.7 5.0 66 2.8 SW 33 48 18 26 1023.8 1023.8 0.0
28/08:30am 10.8 3.8 4.3 64 2.9 SW 30 46 16 25 1023.7 1023.7 0.0
28/08:00am 10.3 3.3 4.0 65 2.8 WSW 30 39 16 21 1023.6 1023.6 0.0
28/07:30am 10.2 3.6 4.1 66 2.7 SW 28 33 15 18 1023.4 1023.4 0.0
28/07:00am 9.9 4.0 4.1 67 2.5 WSW 24 35 13 19 1023.2 1023.2 0.0
28/06:30am 9.7 4.1 3.4 65 2.7 WSW 22 32 12 17 1022.9 1022.9 0.0
28/06:00am 9.5 3.5 3.5 66 2.6 WSW 24 33 13 18 1022.3 1022.3 0.0
28/05:30am 9.1 4.5 3.5 68 2.4 WSW 17 26 9 14 1022.0 1022.0 0.0
28/05:00am 9.0 3.9 3.2 67 2.5 WSW 19 26 10 14 1022.0 1022.0 0.0
28/04:30am 9.0 4.0 3.4 68 2.4 WSW 19 24 10 13 1021.9 1021.9 0.0
28/04:00am 8.8 4.5 3.0 67 2.5 W 15 22 8 12 1021.7 1021.7 0.0
28/03:30am 9.0 3.7 3.0 66 2.6 W 20 30 11 16 1021.6 1021.6 0.0
28/03:00am 9.0 3.4 3.4 68 2.4 W 22 28 12 15 1021.5 1021.5 0.0
28/02:30am 9.1 3.8 3.1 66 2.6 W 20 28 11 15 1021.5 1021.5 0.0
28/02:00am 9.1 3.1 3.5 68 2.4 WSW 24 35 13 19 1021.5 1021.5 0.0
28/01:30am 8.8 3.1 3.0 67 2.5 WSW 22 30 12 16 1021.6 1021.6 0.0
28/01:00am 8.7 4.0 2.9 67 2.5 WSW 17 28 9 15 1021.5 1021.5 0.0
28/12:30am 8.6 4.2 2.6 66 2.5 WSW 15 26 8 14 1021.8 1021.8 0.0
28/12:00am 8.4 3.6 2.4 66 2.5 WSW 17 22 9 12 1022.0 1022.0 0.0
 
Date/Time
EST
Temp
°C
App
Temp
°C
Dew
Point
°C
Rel
Hum
%
Delta-T
°C
Wind Press
QNH
hPa
Press
MSL
hPa
Rain since
9am
mm
Dir  Spd
km/h
Gust
km/h
Spd
kts
Gust
kts
27/11:30pm 8.7 2.9 2.5 65 2.6 WSW 22 28 12 15 1021.9 1021.9 0.0
27/11:00pm 8.8 1.9 2.4 64 2.7 W 28 37 15 20 1021.8 1021.8 0.0
27/10:30pm 8.8 3.0 2.4 64 2.7 WSW 22 30 12 16 1021.9 1021.9 0.0
27/10:00pm 9.0 2.4 2.3 63 2.8 WSW 26 35 14 19 1021.8 1021.8 0.0
27/09:30pm 8.9 3.7 2.5 64 2.7 W 19 24 10 13 1021.8 1021.8 0.0
27/09:00pm 9.1 4.6 2.4 63 2.8 W 15 20 8 11 1022.1 1022.1 0.0
27/08:30pm 9.5 4.1 2.4 61 3.0 W 20 32 11 17 1021.8 1021.8 0.0
27/08:00pm 9.6 4.2 2.5 61 3.0 WSW 20 30 11 16 1021.7 1021.7 0.0
27/07:30pm 9.7 4.9 2.6 61 3.0 SW 17 22 9 12 1021.3 1021.3 0.0
27/07:00pm 9.7 5.0 3.0 63 2.9 SW 17 24 9 13 1021.0 1021.0 0.0
27/06:30pm 10.1 4.1 3.2 62 3.0 SW 24 28 13 15 1020.7 1020.7 0.0
27/06:00pm 10.5 4.8 2.8 59 3.3 SW 22 30 12 16 1020.2 1020.2 0.0
27/05:30pm 10.8 3.3 3.4 60 3.2 SW 32 39 17 21 1019.7 1019.7 0.0
27/05:00pm 11.5 4.4 3.3 57 3.6 SW 30 37 16 20 1019.4 1019.4 0.0
27/04:30pm 11.4 3.9 3.4 58 3.5 SW 32 41 17 22 1018.8 1018.8 0.0
27/04:00pm 11.9 3.5 3.9 58 3.6 SW 37 46 20 25 1018.7 1018.7 0.0
27/03:30pm 11.9 4.4 3.2 55 3.8 SW 32 39 17 21 1018.6 1018.6 0.0
27/03:00pm 12.3 5.0 2.7 52 4.2 SW 30 50 16 27 1018.6 1018.6 0.0
27/02:30pm 11.9 5.4 2.9 54 3.9 SW 26 41 14 22 1018.7 1018.7 0.0
27/02:00pm 11.2 3.1 3.5 59 3.4 SW 35 43 19 23 1018.6 1018.6 0.0
27/01:30pm 11.1 2.9 2.9 57 3.6 SW 35 44 19 24 1018.6 1018.6 0.0
27/01:00pm 10.9 2.3 4.4 64 2.9 SSW 39 46 21 25 1018.8 1018.8 0.0
27/12:30pm 11.1 2.0 1.9 53 3.9 SW 39 50 21 27 1018.9 1018.9 0.0
27/12:20pm 10.6 2.9 3.2 60 3.2 SW 33 52 18 28 1019.0 1019.0 0.0
27/12:00pm 10.9 2.8 3.5 60 3.2 SW 35 43 19 23 1019.2 1019.2 0.0
27/11:30am 10.6 4.0 2.2 56 3.6 WSW 26 35 14 19 1019.1 1019.1 0.0
27/11:14am 10.6 3.1 3.4 61 3.2 SW 32 52 17 28 1019.2 1019.2 0.0
27/11:00am 9.8 3.0 2.9 62 3.0 SW 28 41 15 22 1019.2 1019.2 0.0
27/10:44am 9.4 1.5 2.0 60 3.1 SW 33 54 18 29 1019.1 1019.1 0.0
27/10:30am 9.7 0.0 3.0 63 2.9 SW 43 54 23 29 1019.0 1019.0 0.0
27/10:28am 9.6 -0.7 2.7 62 2.9 SW 46 65 25 35 1019.1 1019.1 0.0
27/10:00am 9.4 -0.1 2.0 60 3.1 SW 41 52 22 28 1018.8 1018.8 0.0
27/09:38am 9.9 2.3 2.7 61 3.1 SW 32 52 17 28 1018.5 1018.5 0.0
27/09:30am 9.5 1.6 2.1 60 3.1 SW 33 46 18 25 1018.5 1018.5 0.0
27/09:00am 9.1 0.4 2.2 62 2.9 WSW 37 46 20 25 1018.1 1018.1 3.8
27/08:42am 8.7 -0.1 1.6 61 2.9 SW 37 56 20 30 1018.0 1018.0 3.8
27/08:30am 8.6 -0.1 2.2 64 2.7 SW 37 44 20 24 1018.0 1018.0 3.8
27/08:14am 8.2 -0.6 1.6 63 2.7 SW 37 59 20 32 1017.8 1017.8 3.8
27/08:00am 7.7 -1.1 1.5 65 2.5 WSW 37 50 20 27 1017.6 1017.6 3.8
27/07:52am 7.6 0.1 1.5 65 2.5 WSW 30 44 16 24 1017.5 1017.5 3.8
27/07:30am 7.1 0.8 1.6 68 2.2 WSW 24 33 13 18 1017.4 1017.4 3.8
27/07:00am 6.5 -1.1 2.6 76 1.6 SW 32 41 17 22 1016.9 1016.9 3.8
27/06:34am 6.5 -2.8 3.1 79 1.4 SW 41 59 22 32 1016.4 1016.4 3.8
27/06:30am 6.1 -3.6 2.9 80 1.3 SW 43 59 23 32 1016.2 1016.2 3.8
27/06:00am 6.8 -1.5 2.1 72 1.9 SW 35 44 19 24 1015.4 1015.4 3.6
27/05:30am 6.9 -1.1 1.6 69 2.1 WSW 33 46 18 25 1014.7 1014.7 3.6
27/05:00am 6.9 -1.5 1.6 69 2.1 SW 35 54 19 29 1014.4 1014.4 3.6
27/04:43am 6.5 -1.3 1.8 72 1.9 WSW 32 52 17 28 1014.1 1014.1 3.6
27/04:30am 6.9 -2.2 2.0 71 2.0 SW 39 57 21 31 1013.7 1013.7 3.6
27/04:00am 6.5 -2.5 2.2 74 1.8 WSW 39 50 21 27 1013.4 1013.4 3.6
27/03:30am 5.9 -4.4 2.5 79 1.4 SW 46 70 25 38 1013.1 1013.1 3.6
27/03:24am 6.5 -2.2 2.0 73 1.8 WSW 37 70 20 38 1013.1 1013.1 3.6
27/03:17am 6.3 -2.1 1.4 71 2.0 WSW 35 54 19 29 1012.6 1012.6 3.6
27/03:00am 6.7 -3.2 2.6 75 1.7 SW 44 54 24 29 1012.2 1012.2 3.6
27/02:30am 6.2 -3.6 2.5 77 1.5 WSW 43 63 23 34 1012.0 1012.0 3.6
27/02:00am 6.5 -2.6 2.0 73 1.8 WSW 39 57 21 31 1011.7 1011.7 3.6
27/01:59am 6.6 -2.5 2.1 73 1.8 WSW 39 57 21 31 1011.5 1011.5 3.6
27/01:30am 6.0 -3.9 2.6 79 1.4 SW 44 57 24 31 1011.3 1011.3 3.6
27/01:00am 6.4 -4.0 2.1 74 1.8 WSW 46 59 25 32 1010.9 1010.9 3.6
27/12:30am 6.3 -4.8 2.4 76 1.6 SW 50 65 27 35 1010.5 1010.5 3.6
27/12:00am 5.8 -4.6 2.1 77 1.5 SW 46 61 25 33 1010.5 1010.5 3.6
 
Date/Time
EST
Temp
°C
App
Temp
°C
Dew
Point
°C
Rel
Hum
%
Delta-T
°C
Wind Press
QNH
hPa
Press
MSL
hPa
Rain since
9am
mm
Dir  Spd
km/h
Gust
km/h
Spd
kts
Gust
kts
26/11:47pm 6.4 -1.8 2.7 77 1.5 SW 35 54 19 29 1010.6 1010.6 3.6
26/11:30pm 6.3 -4.0 2.8 78 1.4 SW 46 59 25 32 1010.2 1010.2 3.6
26/11:15pm 6.0 -3.4 2.3 77 1.5 WSW 41 59 22 32 1009.6 1009.6 3.6
26/11:00pm 5.8 -3.3 1.9 76 1.6 WSW 39 52 21 28 1009.8 1009.8 3.6
26/10:30pm 5.9 -3.2 2.0 76 1.6 SW 39 50 21 27 1009.5 1009.5 3.4
26/10:01pm 6.6 -3.3 1.9 72 1.9 SW 43 61 23 33 1008.9 1008.9 3.4
26/10:00pm 6.5 -3.4 1.8 72 1.9 SW 43 54 23 29 1008.9 1008.9 3.4
26/09:30pm 6.5 -3.9 1.8 72 1.9 SW 46 59 25 32 1008.4 1008.4 3.4
26/09:00pm 5.8 -6.1 4.3 90 0.6 SW 56 70 30 38 1007.9 1007.9 3.4
26/08:53pm 5.8 -6.2 3.6 86 0.9 SW 56 82 30 44 1007.9 1007.9 3.4
26/08:50pm 5.9 -5.5 3.1 82 1.2 SW 52 82 28 44 1007.7 1007.7 3.4
26/08:48pm 6.3 -3.9 3.1 80 1.3 SW 46 70 25 38 1007.9 1007.9 3.4
26/08:30pm 5.8 -4.4 3.0 82 1.2 SW 46 54 25 29 1007.7 1007.7 3.4
26/08:09pm 5.9 -5.2 2.4 78 1.4 SW 50 69 27 37 1007.4 1007.4 3.4
26/08:00pm 5.7 -5.2 3.5 86 0.9 SW 50 63 27 34 1007.1 1007.1 3.4
26/07:33pm 5.7 -6.4 4.0 89 0.7 SW 57 76 31 41 1006.6 1006.6 3.2
26/07:30pm 5.7 -6.4 4.2 90 0.6 SW 57 72 31 39 1006.7 1006.7 3.2
26/07:04pm 6.3 -5.5 4.6 89 0.7 SW 56 74 30 40 1005.8 1005.8 2.6
26/07:00pm 5.9 -6.9 4.4 90 0.6 SSW 61 78 33 42 1005.7 1005.7 2.6
26/06:51pm 6.4 -5.4 4.6 88 0.8 SW 56 78 30 42 1005.5 1005.5 2.0
26/06:30pm 5.9 -6.9 4.5 91 0.6 SSW 61 74 33 40 1004.6 1004.6 1.6
26/06:21pm 5.8 -8.2 4.4 91 0.6 SW 67 87 36 47 1004.5 1004.5 1.4
26/06:11pm 5.9 -5.8 3.4 84 1.0 SSW 54 87 29 47 1004.2 1004.2 1.0
26/06:10pm 7.4 -3.4 4.0 79 1.5 SSW 50 87 27 47 1004.1 1004.1 0.6
26/06:08pm 8.3 -1.8 3.8 73 1.9 SSW 46 67 25 36 1004.3 1004.3 0.6
26/06:00pm 8.0 -1.6 4.2 77 1.7 SSW 44 54 24 29 1003.9 1003.9 0.6
26/05:45pm 8.5 -0.2 4.1 74 1.9 SW 39 57 21 31 1003.7 1003.7 0.6
26/05:30pm 8.4 -2.2 3.3 70 2.2 SW 48 59 26 32 1003.1 1003.1 0.6
26/05:00pm 8.5 -1.0 4.1 74 1.9 SW 43 56 23 30 1002.7 1002.7 0.6
26/04:46pm 8.5 -0.5 4.7 77 1.7 SSW 41 61 22 33 1002.4 1002.4 0.6
26/04:30pm 8.2 0.1 5.3 82 1.3 SW 37 52 20 28 1002.2 1002.2 0.6
26/04:22pm 7.5 -2.0 5.1 85 1.1 SW 44 57 24 31 1002.2 1002.2 0.6
26/04:00pm 7.7 -4.6 5.0 83 1.2 SSW 59 69 32 37 1001.9 1001.9 0.6
26/03:41pm 10.3 0.6 3.8 64 2.9 SW 44 67 24 36 1001.1 1001.1 0.6

Latest Capital City Observations: Canberra | Sydney | Melbourne | Brisbane | Adelaide | Perth | Hobart | Darwin

Other formats

Comma delimited format used in spreadsheet applications
http://www.bom.gov.au/fwo/IDT60901/IDT60901.95988.axf

JavaScript Object Notation format (JSON) in row-major order
http://www.bom.gov.au/fwo/IDT60901/IDT60901.95988.json

Data quality

Most of these data are generated automatically and are frequently updated. Quality checks on data are not normally performed. It is possible for incorrect values to appear. Refer to information at About Latest Weather Observations and please check the disclaimer before using these data.